Date,TemperatureHighF,TemperatureAvgF,TemperatureLowF,DewpointHighF,DewpointAvgF,DewpointLowF,HumidityHigh,HumidityAvg,HumidityLow,PressureMaxIn,PressureMinIn,WindSpeedMaxMPH,WindSpeedAvgMPH,GustSpeedMaxMPH,PrecipitationSumIn
2013-1-1,51,48,41,51,46,39,99,92,74,30.08,29.93,21,3,21,1.79
2013-1-2,41,38,35,41,37,35,99,95,91,30.20,30.03,14,4,14,0.00
2013-1-3,43,37,34,35,33,31,99,87,61,30.31,30.17,15,5,15,0.00
2013-1-4,47,34,26,30,26,24,95,76,42,30.44,30.35,8,2,14,0.01
2013-1-5,50,36,26,38,31,25,96,84,39,30.41,30.26,7,1,8,0.07
2013-1-6,49,41,36,40,38,32,98,88,67,30.31,30.18,15,3,15,0.03
2013-1-7,54,40,28,35,31,26,95,74,41,30.39,30.27,12,3,12,0.00
2013-1-8,57,47,35,46,39,30,85,75,62,30.36,30.24,15,4,15,0.00
2013-1-9,59,54,49,56,51,45,96,90,82,30.38,30.26,15,4,15,0.15
2013-1-10,66,60,57,62,58,54,97,92,85,30.34,30.01,29,7,29,0.04
2013-1-11,66,64,62,64,62,61,99,93,85,30.11,30.03,24,6,24,0.23
2013-1-12,69,67,64,66,63,59,99,86,83,30.07,29.92,16,5,18,0.03
2013-1-13,69,64,62,64,62,59,95,92,84,29.99,29.89,25,7,25,0.00
2013-1-14,45,40,37,45,39,36,98,98,97,30.24,30.07,13,6,15,2.22
2013-1-15,48,44,40,48,44,40,100,99,98,30.13,29.91,13,3,13,1.39
2013-1-16,48,42,40,48,42,39,100,99,97,30.07,29.90,13,4,13,0.20
2013-1-17,44,38,33,42,37,31,99,94,81,30.39,29.83,26,6,26,0.30
2013-1-18,51,37,30,38,33,29,98,84,51,30.57,30.39,10,2,10,0.15
2013-1-19,56,44,29,35,32,28,96,65,40,30.43,30.21,13,2,13,0.00
2013-1-20,59,45,32,41,36,30,95,72,41,30.24,30.12,11,2,11,0.00
2013-1-21,48,38,30,38,27,18,98,68,37,30.24,30.10,21,4,21,0.00
2013-1-22,41,33,26,24,18,15,74,56,37,30.39,30.23,18,3,18,0.00
2013-1-23,55,44,33,40,32,23,79,63,46,30.39,30.18,20,4,20,0.00
2013-1-24,48,44,35,42,28,14,80,55,29,30.34,30.17,18,5,18,0.00
2013-1-25,50,43,36,44,33,13,98,71,36,30.29,30.07,20,4,20,0.06
2013-1-26,54,43,36,42,36,28,97,77,39,30.32,30.16,14,3,14,0.00
2013-1-27,52,46,39,40,37,34,91,71,64,30.38,30.28,16,4,16,0.00
2013-1-28,62,53,45,54,46,35,93,80,62,30.34,30.18,19,4,19,0.00
2013-1-29,68,60,50,64,57,49,98,92,84,30.18,29.77,24,5,24,0.00
2013-1-30,70,55,38,66,52,29,98,90,72,29.92,29.54,36,10,36,1.61
2013-1-31,49,39,31,30,28,25,86,64,41,30.17,29.92,24,8,24,0.00
2013-2-1,42,32,26,34,19,9,80,59,32,30.43,30.12,22,5,22,0.00
2013-2-2,40,33,23,38,26,15,98,76,56,30.37,30.15,13,2,13,0.22
2013-2-3,54,43,34,39,32,27,98,70,37,30.16,30.05,26,7,26,0.00
2013-2-4,49,40,30,36,31,28,93,72,46,30.13,29.96,11,2,11,0.00
2013-2-5,56,48,42,51,44,35,98,87,66,30.05,29.93,12,2,12,0.01
2013-2-6,65,49,37,50,40,36,99,75,36,30.18,30.05,10,1,10,0.00
2013-2-7,54,49,46,48,45,35,97,86,51,30.10,29.92,16,4,16,0.25
2013-2-8,51,45,34,49,42,31,98,91,72,30.25,29.90,21,5,21,0.29
2013-2-9,61,45,29,36,32,27,95,65,29,30.32,30.16,13,4,13,0.00
2013-2-10,56,52,48,55,44,32,98,76,51,30.18,29.95,24,6,24,1.21
2013-2-11,57,53,44,56,48,40,99,86,59,30.15,29.96,14,2,14,0.04
2013-2-12,50,45,40,43,40,33,95,82,52,30.15,29.76,20,4,20,0.25
2013-2-13,47,44,38,46,42,36,98,91,82,30.02,29.69,23,7,23,0.03
2013-2-14,56,45,35,41,38,33,95,77,51,30.10,30.01,14,2,14,0.00
2013-2-15,59,46,35,44,38,32,97,74,47,30.12,30.01,20,4,20,0.00
2013-2-16,40,34,28,32,23,15,79,63,38,30.22,30.03,27,6,27,0.00
2013-2-17,47,36,22,22,18,13,79,51,31,30.33,30.22,16,3,16,0.00
2013-2-18,60,47,32,37,28,20,66,48,37,30.29,29.93,31,8,31,0.00
2013-2-19,53,45,36,46,33,19,98,66,32,30.22,29.91,27,7,27,0.40
2013-2-20,44,37,29,26,21,11,84,54,27,30.27,30.16,11,4,14,0.00
2013-2-21,56,44,31,46,30,18,96,61,23,30.18,29.86,24,5,24,1.42
2013-2-22,47,46,44,46,45,43,98,96,93,30.08,29.92,20,5,20,0.12
2013-2-23,54,46,41,50,45,41,99,96,85,30.01,29.86,10,3,10,0.20
2013-2-24,59,45,30,42,36,30,99,75,36,30.08,29.93,12,2,13,0.01
2013-2-25,55,47,41,43,36,30,95,68,53,29.95,29.53,34,8,34,0.32
2013-2-26,49,44,40,45,40,35,98,86,69,29.80,29.48,31,9,34,0.44
2013-2-27,56,46,40,40,35,32,84,67,45,29.92,29.80,26,8,26,0.00
2013-2-28,40,38,36,36,30,27,90,75,61,30.05,29.87,23,7,23,0.00
2013-3-1,40,37,34,33,31,28,92,80,70,30.07,30.00,18,6,18,0.00
2013-3-2,36,34,31,32,30,26,95,87,76,30.12,30.01,20,7,20,0.03
2013-3-3,42,34,29,26,23,17,85,66,37,30.16,30.09,20,6,20,0.01
2013-3-4,56,44,28,40,29,20,89,56,36,30.18,29.93,19,4,19,0.00
2013-3-5,62,50,37,57,45,30,93,83,62,30.00,29.65,37,10,37,0.40
2013-3-6,42,36,31,31,27,21,86,69,57,30.27,29.98,34,9,34,0.00
2013-3-7,52,39,27,35,30,25,92,73,48,30.34,30.24,13,4,13,0.00
2013-3-8,62,45,28,36,29,24,93,60,26,30.36,30.22,16,3,16,0.00
2013-3-9,63,51,36,39,34,28,87,53,38,30.27,30.06,18,4,18,0.00
2013-3-10,72,62,52,48,40,34,58,46,35,30.10,29.90,25,7,25,0.00
2013-3-11,63,59,54,53,49,48,95,70,58,29.92,29.77,26,8,26,0.24
2013-3-12,55,48,34,37,35,31,90,62,46,30.15,29.93,18,6,20,0.20
2013-3-13,50,44,35,33,27,22,79,52,37,30.36,30.12,27,8,27,0.00
2013-3-14,55,41,29,29,21,12,74,48,22,30.42,30.24,16,4,16,0.00
2013-3-15,74,58,38,48,37,21,70,46,35,30.24,29.92,23,6,23,0.00
2013-3-16,74,64,53,49,45,42,71,53,35,29.97,29.84,23,6,24,0.00
2013-3-17,68,61,54,56,52,46,91,72,54,29.97,29.84,18,5,18,0.00
2013-3-18,70,60,54,63,56,52,95,89,76,29.87,29.69,43,7,44,0.36
2013-3-19,61,50,38,52,36,25,94,61,32,30.11,29.87,21,6,21,0.00
2013-3-20,56,47,38,30,26,14,69,45,26,30.15,29.96,28,5,28,0.00
2013-3-21,46,38,28,30,21,12,81,52,29,30.08,29.94,16,4,18,0.00
2013-3-22,47,44,37,40,32,23,91,63,51,30.06,29.95,12,3,12,0.14
2013-3-23,55,49,43,51,47,40,97,93,86,29.97,29.68,18,6,20,1.27
2013-3-24,61,51,39,55,46,29,98,84,60,29.77,29.45,39,9,39,0.90
2013-3-25,39,36,33,29,26,24,80,69,55,30.14,29.76,31,12,31,0.00
2013-3-26,40,36,33,30,28,26,83,73,62,30.35,30.12,24,7,24,0.00
2013-3-27,52,41,29,32,29,25,87,63,39,30.40,30.28,19,4,19,0.00
2013-3-28,61,47,31,37,32,27,94,61,32,30.36,30.25,16,2,18,0.00
2013-3-29,66,53,36,43,37,33,91,57,31,30.30,30.13,18,3,18,0.00
2013-3-30,69,56,47,56,48,39,98,77,50,30.16,29.94,23,2,23,0.63
2013-3-31,68,60,56,60,57,55,98,91,68,29.94,29.82,21,4,22,0.22
2013-4-1,69,59,52,58,50,42,99,74,40,30.05,29.84,19,4,19,0.00
2013-4-2,59,50,42,44,35,28,85,57,35,30.20,30.04,15,4,15,0.00
2013-4-3,55,48,42,45,36,26,92,66,39,30.18,30.08,18,7,18,0.25
2013-4-4,46,44,42,45,42,40,96,93,91,30.10,29.95,26,8,28,0.66
2013-4-5,65,52,42,49,42,37,98,72,37,30.09,29.98,23,4,23,0.16
2013-4-6,72,58,38,49,41,36,95,57,30,30.15,30.02,16,4,19,0.00
2013-4-7,74,63,49,54,48,39,80,59,42,30.13,29.98,19,4,19,0.00
2013-4-8,77,67,57,62,55,51,90,68,46,30.06,29.96,20,5,20,0.00
2013-4-9,80,70,55,62,58,53,95,67,46,30.12,29.96,20,4,20,0.00
2013-4-10,82,75,62,64,59,57,85,58,46,30.04,29.82,19,5,19,0.00
2013-4-11,76,67,60,67,62,58,97,83,68,29.84,29.49,27,6,27,1.63
2013-4-12,64,55,46,60,44,37,97,71,39,29.97,29.64,22,6,22,0.01
2013-4-13,72,59,44,49,43,37,96,61,30,30.07,29.94,14,2,14,0.00
2013-4-14,60,55,47,54,48,40,94,79,49,30.00,29.84,22,4,24,0.06
2013-4-15,74,64,56,63,59,54,96,84,64,30.05,29.88,15,3,15,0.00
2013-4-16,81,71,63,69,64,59,90,80,62,30.16,30.03,16,4,16,0.00
2013-4-17,84,73,67,70,66,63,91,77,56,30.14,29.99,20,3,20,0.00
2013-4-18,80,72,63,65,62,58,95,73,49,29.99,29.68,28,7,28,0.00
2013-4-19,73,53,43,66,47,35,96,82,62,30.14,29.64,33,9,33,1.05
2013-4-20,62,49,34,41,36,31,97,65,35,30.25,30.14,18,3,18,0.00
2013-4-21,68,55,40,46,39,34,89,59,34,30.31,30.19,16,3,16,0.00
2013-4-22,70,60,51,53,47,42,79,63,47,30.26,30.08,21,4,21,0.00
2013-4-23,73,62,52,55,49,39,79,62,47,30.17,30.00,18,4,18,0.00
2013-4-24,66,58,47,62,54,43,97,88,72,30.22,29.97,18,5,18,0.19
2013-4-25,66,52,39,44,39,34,95,65,34,30.35,30.20,15,4,15,0.00
2013-4-26,74,51,39,50,40,34,90,69,29,30.35,30.20,14,2,16,0.00
2013-4-27,74,63,55,63,56,47,96,79,56,30.25,29.99,20,6,25,0.15
2013-4-28,66,61,57,65,60,56,98,96,90,30.01,29.87,20,4,20,2.05
2013-4-29,72,63,55,60,57,54,99,83,55,30.00,29.89,11,2,11,0.00
2013-4-30,78,65,48,62,55,47,99,74,42,30.01,29.91,12,2,12,0.00
2013-5-1,70,66,62,61,59,55,92,78,69,30.10,29.99,22,6,22,0.00
2013-5-2,67,63,57,61,58,54,88,84,77,30.12,30.03,20,6,23,0.00
2013-5-3,71,63,59,60,58,56,94,84,64,30.03,29.83,30,8,30,0.13
2013-5-4,59,48,44,57,47,42,98,97,92,29.95,29.82,15,4,25,2.41
2013-5-5,62,50,44,53,48,43,99,92,63,29.89,29.77,16,3,16,0.74
2013-5-6,55,50,47,52,49,47,99,97,88,29.90,29.75,13,2,13,2.09
2013-5-7,69,57,47,56,51,46,99,83,54,29.98,29.88,16,3,16,0.00
2013-5-8,76,64,52,62,57,51,98,78,54,30.05,29.96,14,3,14,0.00
2013-5-9,81,69,54,64,59,53,99,74,46,30.09,29.98,13,2,13,0.00
2013-5-10,74,67,63,62,59,57,91,77,59,30.03,29.90,24,4,24,0.03
2013-5-11,74,65,57,67,62,54,97,90,71,29.98,29.88,16,2,16,0.71
2013-5-12,65,57,46,54,44,36,97,65,35,30.14,29.98,18,4,18,0.00
2013-5-13,68,56,40,48,42,36,97,65,36,30.26,30.12,19,2,19,0.00
2013-5-14,80,65,46,61,53,45,98,69,45,30.20,30.05,20,3,20,0.00
2013-5-15,65,63,61,56,56,55,82,77,73,30.07,30.06,7,0,7,0.00
2013-5-16,81,71,62,68,61,57,91,72,47,30.03,29.94,6,2,16,0.00
2013-5-17,77,70,65,68,65,60,97,86,70,30.02,29.92,21,3,21,0.70
2013-5-18,78,71,66,73,69,65,98,94,83,30.01,29.93,16,3,16,0.18
2013-5-19,80,72,63,74,69,60,98,91,73,30.04,29.93,22,4,22,0.03
2013-5-20,82,72,60,73,66,59,98,84,66,30.05,29.94,11,2,11,0.00
2013-5-21,86,76,64,74,69,62,99,80,57,29.99,29.81,16,2,16,0.00
2013-5-22,82,73,67,71,68,64,96,83,62,29.90,29.81,29,3,29,0.10
2013-5-23,82,72,64,69,63,58,99,76,47,30.01,29.87,22,4,22,0.01
2013-5-24,73,64,53,58,53,46,90,68,41,30.23,30.00,22,4,22,0.00
2013-5-25,77,63,48,55,49,35,93,63,23,30.29,30.15,14,2,14,0.00
2013-5-26,84,68,50,61,55,49,98,66,32,30.22,30.10,11,1,11,0.00
2013-5-27,84,72,57,67,61,55,96,71,47,30.16,30.03,18,3,18,0.00
2013-5-28,84,74,64,66,63,59,86,68,50,30.11,30.01,15,4,15,0.00
2013-5-29,84,75,65,71,64,59,83,70,52,30.12,30.01,16,3,16,0.00
2013-5-30,82,74,68,71,67,63,88,81,65,30.14,30.01,14,3,14,0.00
2013-5-31,83,76,69,72,68,66,88,76,59,30.09,29.96,16,4,16,0.00
2013-6-1,84,75,68,75,69,64,97,83,68,30.00,29.90,23,4,23,0.18
2013-6-2,79,73,70,72,70,66,98,91,67,29.93,29.86,14,3,14,0.00
2013-6-3,80,73,64,70,67,63,99,83,60,29.93,29.85,12,4,12,0.01
2013-6-4,84,77,60,68,65,59,98,67,51,29.98,29.90,11,2,12,0.00
2013-6-5,78,70,66,75,68,63,98,92,83,29.95,29.79,21,2,21,0.23
2013-6-6,69,67,65,68,66,64,99,98,97,29.85,29.80,7,0,7,0.00
2013-6-7,78,70,66,72,69,66,99,95,76,29.84,29.66,20,2,20,0.37
2013-6-8,82,72,65,71,66,63,100,83,54,30.00,29.83,14,2,14,0.01
2013-6-9,82,73,69,74,70,67,98,89,68,30.02,29.88,19,4,19,0.34
2013-6-10,85,75,67,72,68,66,99,81,56,29.95,29.86,18,4,18,0.37
2013-6-11,90,80,72,77,73,69,96,79,57,30.00,29.91,19,4,19,0.00
2013-6-12,92,82,73,79,74,68,98,79,50,30.02,29.91,18,2,18,0.00
2013-6-13,89,80,72,78,74,67,97,82,66,29.92,29.73,28,5,28,0.01
2013-6-14,72,69,67,67,66,65,95,90,85,29.84,29.83,9,1,9,0.00
2013-6-15,85,76,59,68,65,58,98,71,51,30.06,29.97,9,1,16,0.00
2013-6-16,87,75,67,76,68,62,98,81,65,30.07,29.93,24,3,24,0.34
2013-6-17,85,73,69,77,71,67,99,93,73,29.98,29.86,23,2,23,0.98
2013-6-18,81,73,69,75,70,67,99,91,76,29.90,29.81,24,4,24,0.31
2013-6-19,84,74,66,72,68,64,99,83,53,30.02,29.89,12,1,13,0.00
2013-6-20,77,69,66,71,67,65,99,94,77,30.11,30.01,11,1,11,0.00
2013-6-21,84,77,64,72,67,63,98,73,52,30.18,30.07,12,2,13,0.00
2013-6-22,84,75,66,70,66,63,96,75,49,30.17,30.02,13,2,13,0.00
2013-6-23,86,76,64,73,68,63,96,80,58,30.13,30.02,12,2,13,0.00
2013-6-24,86,76,70,75,71,68,97,85,64,30.16,30.03,16,2,16,0.00
2013-6-25,87,78,71,75,72,70,98,83,61,30.10,29.97,12,2,12,0.00
2013-6-26,89,83,69,76,74,68,99,75,60,30.01,29.86,16,4,16,0.00
2013-6-27,90,80,70,80,73,67,95,81,55,29.92,29.76,23,4,23,0.06
2013-6-28,87,78,71,77,72,68,98,82,54,29.80,29.64,20,3,20,0.00
2013-6-29,86,78,72,72,66,57,97,69,39,29.67,29.61,15,2,15,0.00
2013-6-30,87,75,63,68,63,57,97,71,37,29.74,29.65,16,2,16,0.00
2013-7-1,84,74,64,70,66,63,98,80,50,29.86,29.71,14,2,14,0.00
2013-7-2,84,74,63,71,67,62,98,81,55,29.94,29.84,13,2,13,0.00
2013-7-3,78,71,68,73,69,67,98,92,81,30.06,29.97,12,3,13,0.17
2013-7-4,77,72,69,73,70,68,98,94,75,30.05,29.97,16,4,24,0.69
2013-7-5,73,71,69,72,70,68,98,96,91,30.11,30.01,15,3,15,0.51
2013-7-6,73,71,69,72,70,69,99,98,95,30.09,30.02,9,1,9,1.23
2013-7-7,83,75,70,75,72,70,99,90,70,30.10,30.03,13,2,13,0.01
2013-7-8,83,75,70,77,73,69,99,93,75,30.14,30.05,12,1,13,0.46
2013-7-9,88,78,72,78,74,72,99,89,63,30.14,30.00,9,1,9,0.00
2013-7-10,88,79,70,78,74,69,99,86,65,30.04,29.88,25,3,25,1.19
2013-7-11,85,76,70,76,72,69,99,90,69,29.96,29.81,10,1,12,0.27
2013-7-12,85,76,68,75,70,64,98,84,65,29.92,29.83,12,2,14,0.00
2013-7-13,82,73,62,74,69,61,98,87,72,30.00,29.89,14,3,14,0.00
2013-7-14,84,76,71,75,72,69,97,87,70,30.10,29.97,19,4,19,0.03
2013-7-15,86,78,72,75,72,70,96,83,61,30.21,30.09,18,5,18,0.09
2013-7-16,87,77,71,75,72,69,97,86,58,30.26,30.17,15,3,15,0.00
2013-7-17,90,79,69,78,73,68,99,82,60,30.24,30.10,9,2,11,0.00
2013-7-18,87,79,70,74,72,69,97,80,60,30.14,30.00,12,2,12,0.00
2013-7-19,90,79,68,76,72,68,99,81,56,30.07,29.91,11,1,11,0.00
2013-7-20,86,76,69,77,73,68,99,89,66,29.98,29.86,24,1,24,0.53
2013-7-21,86,76,70,77,72,69,99,90,69,29.98,29.89,22,2,22,0.12
2013-7-22,82,75,69,76,71,68,99,90,72,29.95,29.83,16,3,16,0.01
2013-7-23,74,71,69,73,70,68,99,97,93,29.95,29.82,16,2,16,2.69
2013-7-24,84,74,69,75,72,69,100,93,69,29.88,29.79,10,1,10,0.05
2013-7-25,83,75,68,72,68,64,99,82,57,29.98,29.83,13,2,13,0.01
2013-7-26,86,73,63,72,68,62,99,85,54,30.02,29.92,10,1,11,0.00
2013-7-27,83,75,68,72,69,63,99,84,54,29.94,29.85,13,2,13,0.00
2013-7-28,84,76,68,73,70,67,97,84,63,30.02,29.87,10,2,10,0.00
2013-7-29,80,71,63,67,64,60,97,79,54,30.14,30.01,8,1,8,0.00
2013-7-30,89,75,60,74,66,59,99,78,48,30.17,30.03,9,1,9,0.05
2013-7-31,83,74,69,76,71,68,98,91,77,30.09,29.91,15,3,15,1.16
2013-8-1,85,76,69,75,71,68,99,87,64,29.96,29.89,11,2,13,0.01
2013-8-2,86,75,65,72,68,62,99,81,47,30.00,29.91,9,0,9,0.01
2013-8-3,84,74,64,76,71,64,99,90,70,30.02,29.95,11,1,15,0.01
2013-8-4,86,76,68,75,72,67,99,88,66,30.03,29.94,12,2,16,0.00
2013-8-5,81,73,66,72,67,61,98,81,55,30.03,29.93,0,0,0,0.00
2013-8-6,82,74,69,76,71,66,98,93,76,30.00,29.90,8,0,8,0.18
2013-8-7,88,76,70,79,73,69,99,92,70,29.97,29.89,27,2,27,1.23
2013-8-8,88,76,69,80,73,68,99,91,71,29.99,29.90,20,2,20,0.03
2013-8-9,88,78,69,78,74,69,99,88,66,30.02,29.94,9,2,12,0.01
2013-8-10,84,76,70,79,74,70,99,94,81,30.09,30.00,9,1,20,0.27
2013-8-11,88,78,70,79,74,70,100,88,65,30.11,30.01,12,1,13,0.07
2013-8-12,88,78,71,78,74,70,99,88,67,30.07,29.93,12,2,12,0.12
2013-8-13,85,78,72,76,73,71,97,87,69,29.94,29.84,13,3,13,0.03
2013-8-14,80,73,64,73,68,62,97,85,57,29.98,29.87,13,3,13,0.00
2013-8-15,77,69,62,69,64,61,95,85,70,30.02,29.94,13,3,13,0.00
2013-8-16,70,67,65,65,63,60,95,87,80,30.06,29.97,15,3,15,0.00
2013-8-17,69,66,64,65,64,62,98,93,85,30.08,30.00,15,3,15,0.00
2013-8-18,75,70,66,70,68,65,99,93,83,30.12,30.03,13,2,14,0.10
2013-8-19,84,75,68,75,71,68,99,89,67,30.07,29.96,11,2,11,0.07
2013-8-20,82,75,71,76,73,70,98,92,80,30.11,30.01,11,1,11,0.06
2013-8-21,86,75,69,76,72,69,99,91,65,30.14,30.05,15,2,15,0.35
2013-8-22,85,76,68,77,73,68,99,90,72,30.13,29.99,14,1,14,0.00
2013-8-23,88,77,67,77,72,67,100,87,59,30.05,29.93,9,1,9,0.00
2013-8-24,79,75,68,73,72,67,99,88,82,30.11,30.00,0,0,0,0.01
2013-8-25,80,76,65,73,71,63,95,84,70,30.28,30.10,6,0,16,0.01
2013-8-26,82,71,60,70,64,59,99,80,55,30.27,30.11,0,0,0,0.00
2013-8-27,84,73,60,72,66,59,100,83,56,30.13,30.01,11,1,11,0.00
2013-8-28,87,76,65,75,70,65,100,84,59,30.04,29.96,12,1,12,0.00
2013-8-29,89,79,69,76,72,68,98,82,61,30.01,29.91,14,2,14,0.00
2013-8-30,88,77,70,79,74,69,99,89,67,29.96,29.87,11,1,12,0.04
2013-8-31,90,79,70,80,74,69,100,86,58,29.92,29.80,9,1,9,0.01
2013-9-1,88,79,72,77,74,71,97,85,61,29.89,29.79,15,2,15,0.01
2013-9-2,85,75,67,75,71,66,99,88,63,29.96,29.81,13,2,19,1.94
2013-9-3,86,77,66,76,71,65,98,83,54,29.96,29.84,12,2,12,0.00
2013-9-4,85,74,62,70,66,61,99,80,52,30.07,29.94,11,0,11,0.01
2013-9-5,85,72,63,71,66,62,99,82,55,30.11,30.03,8,1,8,0.00
2013-9-6,88,74,63,74,68,62,99,84,54,30.11,30.00,1,0,1,0.00
2013-9-7,87,75,65,75,70,64,99,84,58,30.07,29.96,9,1,9,0.00
2013-9-8,88,76,63,75,70,63,99,84,57,29.99,29.90,0,0,0,0.00
2013-9-9,89,76,67,76,72,67,99,86,59,30.04,29.94,0,0,0,0.00
2013-9-10,88,78,70,76,72,68,98,83,58,30.15,30.04,1,0,4,0.00
2013-9-11,74,71,68,71,69,67,98,95,91,30.12,30.11,0,0,0,0.00
2013-9-12,88,79,65,74,69,64,99,74,49,30.05,29.88,12,0,12,0.04
2013-9-13,82,74,68,71,66,55,99,78,46,29.90,29.83,18,2,18,0.00
2013-9-14,77,65,52,60,57,51,97,77,46,30.02,29.91,8,0,13,0.00
2013-9-15,83,68,57,69,62,55,98,83,50,30.11,30.01,14,2,14,0.01
2013-9-16,85,70,57,70,61,56,99,76,40,30.13,30.04,14,1,14,0.00
2013-9-17,81,71,62,71,66,61,98,84,70,30.14,30.06,12,3,16,0.00
2013-9-18,81,71,64,69,64,60,90,81,66,30.16,30.06,14,3,14,0.00
2013-9-19,83,72,62,69,65,60,97,79,58,30.14,30.01,10,2,10,0.00
2013-9-20,84,74,63,69,66,62,98,78,51,30.02,29.81,12,3,12,0.01
2013-9-21,72,68,58,71,66,58,98,95,89,29.81,29.70,21,4,21,2.09
2013-9-22,78,64,53,61,57,52,99,81,48,29.87,29.78,16,2,16,0.01
2013-9-23,80,66,51,66,59,50,100,81,51,29.95,29.85,13,2,13,0.01
2013-9-24,69,66,63,67,65,61,97,93,90,29.95,29.81,18,3,18,0.00
2013-9-25,74,68,64,70,66,62,98,94,84,29.84,29.76,10,1,10,0.01
2013-9-26,79,69,61,67,64,60,98,85,60,29.97,29.83,10,1,11,0.00
2013-9-27,79,67,56,66,60,56,100,81,47,30.10,29.97,11,1,14,0.00
2013-9-28,77,65,56,61,58,56,99,80,50,30.18,30.05,18,2,18,0.01
2013-9-29,73,64,54,63,58,53,97,81,62,30.11,29.98,12,1,12,0.00
2013-9-30,71,66,57,61,59,56,96,79,70,30.05,29.96,8,4,11,0.00
2013-10-1,82,71,58,69,64,57,98,79,60,30.11,30.00,11,3,11,0.00
2013-10-2,82,70,60,68,64,59,99,83,53,30.12,30.02,7,0,7,0.00
2013-10-3,83,72,63,68,65,62,98,80,53,30.08,29.99,13,1,13,0.00
2013-10-4,84,72,61,71,66,60,99,83,59,30.11,30.02,15,1,15,0.00
2013-10-5,85,73,62,71,66,61,99,80,57,30.07,29.92,12,1,12,0.00
2013-10-6,79,71,57,71,66,55,98,87,72,29.92,29.77,15,3,22,0.35
2013-10-7,70,60,53,56,53,50,98,79,50,30.02,29.85,18,4,18,0.01
2013-10-8,76,64,50,63,56,47,92,76,57,30.06,29.96,16,4,16,0.00
2013-10-9,77,66,58,60,55,47,95,70,50,30.16,30.05,18,3,18,0.00
2013-10-10,80,66,54,64,59,53,99,82,49,30.12,29.99,11,1,11,0.00
2013-10-11,78,66,51,62,58,51,99,77,50,30.06,29.97,14,1,14,0.00
2013-10-12,79,64,51,63,57,50,99,81,51,30.08,29.98,20,1,20,0.00
2013-10-13,80,66,56,62,58,55,99,77,42,30.18,30.08,13,2,16,0.00
2013-10-14,78,66,54,66,60,54,99,84,60,30.19,30.05,11,1,11,0.00
2013-10-15,69,64,57,63,60,56,99,89,75,30.09,30.00,12,1,12,0.00
2013-10-16,72,65,60,66,62,58,98,92,78,30.02,29.89,11,1,11,0.09
2013-10-17,68,63,52,67,62,51,98,95,89,29.97,29.84,15,3,15,0.04
2013-10-18,67,56,48,54,51,47,99,85,54,30.06,29.93,12,1,12,0.00
2013-10-19,70,58,47,57,53,45,98,86,60,30.01,29.89,18,2,18,0.00
2013-10-20,66,50,36,46,41,32,99,76,29,30.08,30.00,8,1,11,0.01
2013-10-21,71,54,36,52,45,35,99,77,36,30.11,29.99,11,1,11,0.00
2013-10-22,69,59,52,57,54,51,96,82,54,29.99,29.85,13,2,13,0.00
2013-10-23,58,50,39,51,42,36,96,77,47,30.10,29.85,22,3,22,0.01
2013-10-24,64,48,35,45,41,34,99,78,43,30.26,30.10,16,2,16,0.00
2013-10-25,53,42,32,38,31,26,94,67,36,30.45,30.26,19,3,19,0.00
2013-10-26,62,44,27,40,33,26,98,70,29,30.34,30.13,13,1,13,0.00
2013-10-27,66,56,43,55,49,39,94,79,58,30.14,30.07,9,1,9,0.00
2013-10-28,67,58,53,60,56,52,98,91,75,30.24,30.08,9,1,9,0.06
2013-10-29,75,63,52,63,58,51,99,86,62,30.28,30.17,13,1,13,0.00
2013-10-30,77,67,56,62,59,55,98,78,51,30.25,30.07,10,2,14,0.00
2013-10-31,73,67,62,67,62,56,96,85,76,30.07,29.70,30,6,30,0.07
2013-11-1,71,63,53,66,55,46,97,77,46,29.84,29.68,21,4,21,0.11
2013-11-2,66,54,47,52,44,38,95,70,40,30.10,29.82,18,3,22,0.00
2013-11-3,62,49,38,44,39,35,97,73,38,30.27,30.09,13,2,13,0.00
2013-11-4,66,54,38,43,40,36,95,63,36,30.39,30.25,22,4,22,0.00
2013-11-5,63,54,46,44,40,37,72,60,49,30.40,30.26,19,4,20,0.00
2013-11-6,70,62,52,61,56,44,93,82,70,30.26,30.02,19,4,19,0.05
2013-11-7,62,58,48,62,57,48,98,97,94,30.14,30.00,22,3,22,0.36
2013-11-8,59,45,33,37,31,24,91,63,27,30.38,30.23,11,1,19,0.00
2013-11-9,59,48,35,44,37,29,92,68,40,30.33,30.20,13,1,13,0.00
2013-11-10,69,54,44,48,43,37,96,67,39,30.31,30.20,14,2,14,0.00
2013-11-11,70,50,34,38,32,21,96,58,17,30.30,30.15,9,1,9,0.00
2013-11-12,53,42,31,45,31,15,89,65,44,30.52,30.14,28,7,28,0.00
2013-11-13,49,35,25,24,19,15,82,55,26,30.64,30.46,20,3,20,0.00
2013-11-14,58,42,21,30,22,16,92,51,20,30.49,30.23,9,1,12,0.00
2013-11-15,56,50,40,50,42,24,98,77,52,30.25,30.06,14,2,14,0.11
2013-11-16,66,58,50,59,55,49,98,92,80,30.16,30.01,15,4,15,0.00
2013-11-17,70,65,60,69,64,57,99,96,91,30.02,29.82,18,5,18,0.29
2013-11-18,70,59,47,69,44,31,97,60,27,30.11,29.86,23,5,23,0.00
2013-11-19,56,46,36,34,29,23,77,52,29,30.20,30.08,22,6,22,0.00
2013-11-20,59,49,36,39,35,29,78,57,45,30.26,30.13,20,5,23,0.00
2013-11-21,63,56,51,53,47,39,85,72,60,30.32,30.20,16,4,16,0.00
2013-11-22,65,58,53,60,56,50,98,92,82,30.27,30.15,13,2,13,0.02
2013-11-23,53,46,33,52,40,22,97,81,52,30.38,30.17,22,7,22,0.01
2013-11-24,42,32,26,25,18,14,76,57,34,30.56,30.37,22,6,22,0.00
2013-11-25,41,36,26,36,24,13,96,63,40,30.43,30.13,20,5,21,0.72
2013-11-26,47,42,36,46,41,35,99,97,95,30.13,29.75,23,6,23,2.37
2013-11-27,36,32,24,35,24,15,95,74,55,30.37,29.82,27,7,27,0.01
2013-11-28,44,30,19,23,19,15,90,66,32,30.50,30.36,8,1,8,0.00
2013-11-29,55,38,22,30,25,20,94,66,28,30.58,30.45,12,1,12,0.00
2013-11-30,53,44,34,33,30,27,78,60,42,30.52,30.27,16,2,16,0.00
2013-12-1,57,46,32,41,36,28,89,68,47,30.27,29.96,10,2,10,0.00
2013-12-2,53,50,45,52,48,41,99,95,71,29.96,29.77,9,2,10,0.39
2013-12-3,59,54,48,59,54,48,100,99,97,29.83,29.76,11,2,11,0.01
2013-12-4,72,65,59,65,62,59,100,93,76,29.93,29.82,21,5,21,0.00
2013-12-5,74,68,60,70,67,58,98,95,84,29.99,29.87,15,4,18,0.01
2013-12-6,60,47,38,58,47,37,100,99,94,30.21,29.89,16,3,16,0.61
2013-12-7,40,37,35,38,36,34,98,95,91,30.40,30.20,19,6,19,0.00
2013-12-8,50,46,40,50,46,39,99,99,96,30.26,30.05,15,3,15,1.09
2013-12-9,51,47,42,50,46,41,100,98,93,30.15,30.00,16,3,16,0.68
2013-12-10,42,35,28,42,33,27,100,91,70,30.38,29.98,20,4,20,0.39
2013-12-11,54,37,23,36,28,22,98,74,38,30.46,30.35,9,1,9,0.00
2013-12-12,34,32,29,28,27,26,90,84,75,30.49,30.42,8,2,8,0.00
2013-12-13,50,42,24,32,26,21,92,56,36,30.42,30.10,10,1,10,0.00
2013-12-14,54,49,39,54,46,30,99,90,54,30.11,29.78,21,5,26,0.71
2013-12-15,39,35,32,37,33,30,95,90,83,30.26,29.94,20,5,20,0.00
2013-12-16,54,40,29,38,32,29,98,76,46,30.30,30.17,13,3,16,0.00
2013-12-17,61,48,34,40,36,30,93,65,44,30.25,30.08,23,4,23,0.00
2013-12-18,54,42,31,32,26,20,85,57,27,30.37,30.24,10,1,10,0.00
2013-12-19,61,46,30,34,30,26,88,58,32,30.30,30.12,15,2,15,0.00
2013-12-20,64,58,49,58,47,32,89,68,49,30.14,29.98,21,4,21,0.00
2013-12-21,72,66,60,68,64,58,98,93,87,29.99,29.75,30,8,30,0.06
2013-12-22,71,58,54,67,57,53,98,96,88,29.96,29.74,32,5,32,1.55
2013-12-23,53,38,32,53,35,28,99,88,81,30.40,30.03,21,6,22,0.03
2013-12-24,36,30,24,28,24,20,91,78,59,30.52,30.38,13,3,20,0.00
2013-12-25,48,34,20,30,25,18,93,73,48,30.46,30.32,19,2,19,0.00
2013-12-26,51,37,27,36,30,25,96,78,50,30.40,30.30,10,1,11,0.00
2013-12-27,55,39,26,35,30,24,97,74,39,30.47,30.35,11,1,11,0.00
2013-12-28,45,40,33,40,36,30,98,87,60,30.36,29.92,23,4,23,1.28
2013-12-29,50,43,41,45,42,40,99,95,80,30.07,29.89,12,2,12,0.10
2013-12-30,45,40,36,43,38,35,98,93,84,30.26,30.06,11,2,11,0.00
2013-12-31,42,35,30,35,30,28,96,83,58,30.47,30.25,15,2,15,0.00
2014-1-1,50,39,28,41,34,27,96,81,60,30.35,30.05,13,2,13,0.00
2014-1-2,49,38,23,49,35,15,99,88,69,30.29,29.84,34,7,34,0.34